Scott Nathan — WDC8788 — position and weather

sailwx.info

Track history (hours):
 
Tides and Currents Weather Stations Pressure Air Temp Water Temp Dewpoint Dewpoint Depression Visibility Wind Speed Wind Dir Waves Ship Positions

Scott Nathan

Owner: BRINDLEY, JAMES A, BARNEGAT LIGHT, NJ. More information available from US FCC via Universal Licensing System and Coast Guard Vessel Documentation Center.

Last reported at 2018-May-24 22:38 UTC. Time now 2018-May-28 01:17 UTC.
Position N 39°46' W 074°05'.

Length 16 m.

Type: Fishing. MMSI: 367093070.

Date/timePositionNaut miles runAvg speedWind from/ knotsBaromVisibWave heightAir tempDewpointWater temp
2018-May-24 22:38N 39°46' W 074°05'0 2.1
2018-May-24 22:27N 39°46' W 074°04'0 0.6
2018-May-24 22:00N 39°46' W 074°04'1 1.0
2018-May-24 21:30N 39°46' W 074°03'3 5.1
2018-May-24 20:56N 39°46' W 073°60'10 2.8
2018-May-24 17:10N 39°40' W 073°49'1 3.8
2018-May-24 16:56N 39°39' W 073°50'6 2.0
2018-May-24 13:52N 39°44' W 073°54'4 6.8
2018-May-24 13:20N 39°45' W 073°58'6 0.9
2018-May-24 06:34N 39°46' W 074°07'1 6.4
2018-May-24 06:28N 39°46' W 074°06'4 6.4
2018-May-24 05:54N 39°49' W 074°03'1 0.1
2018-May-23 11:42N 39°50' W 074°04'2 7.4
2018-May-23 11:25N 39°48' W 074°04'2 5.4
2018-May-23 10:59N 39°46' W 074°06'3 0.3
2018-May-23 02:16N 39°48' W 074°04'48 4.0
2018-May-22 14:14N 40°31' W 073°37'1 5.7
2018-May-22 13:59N 40°31' W 073°39'1 2.2
2018-May-22 13:30N 40°31' W 073°40'1 2.8
2018-May-22 13:00N 40°31' W 073°42'1 2.9
2018-May-22 12:30N 40°30' W 073°44'1 2.9
2018-May-22 12:00N 40°30' W 073°46'2 3.5
2018-May-22 11:30N 40°30' W 073°48'4 5.8
2018-May-22 10:53N 40°27' W 073°50'3 6.7
2018-May-22 10:30N 40°24' W 073°51'3 6.7
2018-May-22 09:59N 40°21' W 073°53'4 6.5
2018-May-22 09:26N 40°17' W 073°54'13 6.4
2018-May-22 07:24N 40°05' W 073°58'5 6.7
2018-May-22 06:39N 39°60' W 073°59'1 6.9
2018-May-22 06:30N 39°59' W 073°59'3 7.1
2018-May-22 06:00N 39°56' W 074°01'4 7.1
2018-May-22 05:30N 39°52' W 074°02'3 6.9
2018-May-22 05:00N 39°49' W 074°02'4 7.1
2018-May-22 04:30N 39°46' W 074°05'1 2.5
2018-May-22 03:59N 39°46' W 074°07'0 0.0
2018-May-22 03:29N 39°46' W 074°07'1 1.1
2018-May-22 03:00N 39°46' W 074°06'3 6.5
2018-May-22 02:30N 39°46' W 074°02'4 7.0
2018-May-22 02:00N 39°48' W 073°58'1 0.0
2018-May-21 08:04N 39°47' W 073°57'0 6.8
2018-May-21 08:00N 39°47' W 073°58'3 6.8
2018-May-21 07:30N 39°46' W 074°02'3 6.3
2018-May-21 07:00N 39°46' W 074°06'1 1.1
2018-May-21 06:27N 39°46' W 074°07'  
2018-May-18 04:53N 39°46' W 074°07'2 4.1
2018-May-18 04:29N 39°46' W 074°04'3 6.9
2018-May-18 04:00N 39°47' W 074°00'2 0.1
2018-May-17 07:22N 39°47' W 073°57'2 6.4
2018-May-17 07:00N 39°46' W 074°00'3 6.7
2018-May-17 06:29N 39°46' W 074°05'  
Track history (hours):
 
Tides and Currents Weather Stations Pressure Air Temp Water Temp Dewpoint Dewpoint Depression Visibility Wind Speed Wind Dir Waves Ship Positions

Scott Nathan

Owner: BRINDLEY, JAMES A, BARNEGAT LIGHT, NJ. More information available from US FCC via Universal Licensing System and Coast Guard Vessel Documentation Center.

Last reported at 2018-May-24 22:38 UTC. Time now 2018-May-28 01:17 UTC.
Position N 39°46' W 074°05'.

Length 16 m.

Type: Fishing. MMSI: 367093070.

Date/timePositionNaut miles runAvg speedWind from/ knotsBaromVisibWave heightAir tempDewpointWater temp
2018-May-24 22:38N 39°46' W 074°05'0 2.1
2018-May-24 22:27N 39°46' W 074°04'0 0.6
2018-May-24 22:00N 39°46' W 074°04'1 1.0
2018-May-24 21:30N 39°46' W 074°03'3 5.1
2018-May-24 20:56N 39°46' W 073°60'10 2.8
2018-May-24 17:10N 39°40' W 073°49'1 3.8
2018-May-24 16:56N 39°39' W 073°50'6 2.0
2018-May-24 13:52N 39°44' W 073°54'4 6.8
2018-May-24 13:20N 39°45' W 073°58'6 0.9
2018-May-24 06:34N 39°46' W 074°07'1 6.4
2018-May-24 06:28N 39°46' W 074°06'4 6.4
2018-May-24 05:54N 39°49' W 074°03'1 0.1
2018-May-23 11:42N 39°50' W 074°04'2 7.4
2018-May-23 11:25N 39°48' W 074°04'2 5.4
2018-May-23 10:59N 39°46' W 074°06'3 0.3
2018-May-23 02:16N 39°48' W 074°04'48 4.0
2018-May-22 14:14N 40°31' W 073°37'1 5.7
2018-May-22 13:59N 40°31' W 073°39'1 2.2
2018-May-22 13:30N 40°31' W 073°40'1 2.8
2018-May-22 13:00N 40°31' W 073°42'1 2.9
2018-May-22 12:30N 40°30' W 073°44'1 2.9
2018-May-22 12:00N 40°30' W 073°46'2 3.5
2018-May-22 11:30N 40°30' W 073°48'4 5.8
2018-May-22 10:53N 40°27' W 073°50'3 6.7
2018-May-22 10:30N 40°24' W 073°51'3 6.7
2018-May-22 09:59N 40°21' W 073°53'4 6.5
2018-May-22 09:26N 40°17' W 073°54'13 6.4
2018-May-22 07:24N 40°05' W 073°58'5 6.7
2018-May-22 06:39N 39°60' W 073°59'1 6.9
2018-May-22 06:30N 39°59' W 073°59'3 7.1
2018-May-22 06:00N 39°56' W 074°01'4 7.1
2018-May-22 05:30N 39°52' W 074°02'3 6.9
2018-May-22 05:00N 39°49' W 074°02'4 7.1
2018-May-22 04:30N 39°46' W 074°05'1 2.5
2018-May-22 03:59N 39°46' W 074°07'0 0.0
2018-May-22 03:29N 39°46' W 074°07'1 1.1
2018-May-22 03:00N 39°46' W 074°06'3 6.5
2018-May-22 02:30N 39°46' W 074°02'4 7.0
2018-May-22 02:00N 39°48' W 073°58'1 0.0
2018-May-21 08:04N 39°47' W 073°57'0 6.8
2018-May-21 08:00N 39°47' W 073°58'3 6.8
2018-May-21 07:30N 39°46' W 074°02'3 6.3
2018-May-21 07:00N 39°46' W 074°06'1 1.1
2018-May-21 06:27N 39°46' W 074°07'  
2018-May-18 04:53N 39°46' W 074°07'2 4.1
2018-May-18 04:29N 39°46' W 074°04'3 6.9
2018-May-18 04:00N 39°47' W 074°00'2 0.1
2018-May-17 07:22N 39°47' W 073°57'2 6.4
2018-May-17 07:00N 39°46' W 074°00'3 6.7
2018-May-17 06:29N 39°46' W 074°05'  

Dump ship's entire track history